createdAt,value
2022-09-22T00:01:32.428Z,11.77
2022-09-22T00:04:04.385Z,11.71
2022-09-22T00:06:37.267Z,11.83
2022-09-22T00:09:07.197Z,11.88
2022-09-22T00:11:40.377Z,11.98
2022-09-22T00:14:13.810Z,11.99
2022-09-22T00:16:48.686Z,12.03
2022-09-22T00:19:22.990Z,11.92
2022-09-22T00:21:51.444Z,11.84
2022-09-22T00:24:22.688Z,11.87
2022-09-22T00:26:51.568Z,11.91
2022-09-22T00:29:19.126Z,11.94
2022-09-22T00:31:46.678Z,11.85
2022-09-22T00:34:18.900Z,11.83
2022-09-22T00:36:47.083Z,12.03
2022-09-22T00:39:16.683Z,11.81
2022-09-22T00:41:47.594Z,11.68
2022-09-22T00:44:34.810Z,11.71
2022-09-22T00:47:30.309Z,11.90
2022-09-22T00:50:07.222Z,11.57
2022-09-22T00:52:58.848Z,11.56
2022-09-22T00:55:28.936Z,11.42
2022-09-22T00:57:57.781Z,11.34
2022-09-22T01:00:25.342Z,11.28
2022-09-22T01:02:59.503Z,11.44
2022-09-22T01:05:30.151Z,11.69
2022-09-22T01:07:58.009Z,11.61
2022-09-22T01:10:26.414Z,11.40
2022-09-22T01:13:22.414Z,11.24
2022-09-22T01:16:45.895Z,11.09
2022-09-22T01:19:40.361Z,11.37
2022-09-22T01:22:22.662Z,11.60
2022-09-22T01:25:50.456Z,11.53
2022-09-22T01:29:08.270Z,11.42
2022-09-22T01:32:23.132Z,11.75
2022-09-22T01:35:27.915Z,11.47
2022-09-22T01:38:10.074Z,11.74
2022-09-22T01:40:57.808Z,11.48
2022-09-22T01:43:34.465Z,11.49
2022-09-22T01:46:10.581Z,11.49
2022-09-22T01:48:44.942Z,11.43
2022-09-22T01:51:24.688Z,11.41
2022-09-22T01:54:18.656Z,11.35
2022-09-22T01:56:53.397Z,11.22
2022-09-22T01:59:27.926Z,11.27
2022-09-22T02:02:03.531Z,11.24
2022-09-22T02:04:47.817Z,11.50
2022-09-22T02:07:41.513Z,11.23
2022-09-22T02:10:13.819Z,11.45
2022-09-22T02:12:41.513Z,11.23
2022-09-22T02:15:30.130Z,10.93
2022-09-22T02:18:06.381Z,10.88
2022-09-22T02:20:35.129Z,10.83
2022-09-22T02:23:03.068Z,10.81
2022-09-22T02:25:30.966Z,11.08
2022-09-22T02:27:59.372Z,11.17
2022-09-22T02:30:27.932Z,11.14
2022-09-22T02:32:58.093Z,10.98
2022-09-22T02:35:30.995Z,11.08
2022-09-22T02:38:28.855Z,10.85
2022-09-22T02:41:29.868Z,10.81
2022-09-22T02:44:15.301Z,11.00
2022-09-22T02:46:58.415Z,10.86
2022-09-22T02:49:27.750Z,10.79
2022-09-22T02:51:55.495Z,10.82
2022-09-22T02:54:25.769Z,10.80
2022-09-22T02:56:53.475Z,10.81
2022-09-22T02:59:21.206Z,10.69
2022-09-22T03:01:49.910Z,10.52
2022-09-22T03:04:17.482Z,10.57
2022-09-22T03:06:45.045Z,10.57
2022-09-22T03:09:12.551Z,10.86
2022-09-22T03:11:39.983Z,10.66
2022-09-22T03:14:07.424Z,10.41
2022-09-22T03:16:35.191Z,10.35
2022-09-22T03:19:02.604Z,10.57
2022-09-22T03:21:30.111Z,10.59
2022-09-22T03:23:57.584Z,10.44
2022-09-22T03:26:25.059Z,10.34
2022-09-22T03:28:53.423Z,10.34
2022-09-22T03:31:20.964Z,10.41
2022-09-22T03:33:52.586Z,10.21
2022-09-22T03:36:20.936Z,10.22
2022-09-22T03:38:48.696Z,10.22
2022-09-22T03:41:16.132Z,10.16
2022-09-22T03:43:43.590Z,10.07
2022-09-22T03:46:11.071Z,10.00
2022-09-22T03:48:42.872Z,10.01
2022-09-22T03:51:12.418Z,9.78
2022-09-22T03:53:39.883Z,9.73
2022-09-22T03:56:14.331Z,9.70
2022-09-22T03:58:42.325Z,9.78
2022-09-22T04:01:11.408Z,9.73
2022-09-22T04:03:41.062Z,9.90
2022-09-22T04:06:09.131Z,9.85
2022-09-22T04:08:36.752Z,9.99
2022-09-22T04:11:05.606Z,9.93
2022-09-22T04:13:33.115Z,9.93
2022-09-22T04:16:00.597Z,9.90
2022-09-22T04:18:28.552Z,9.80
2022-09-22T04:20:59.776Z,9.83
2022-09-22T04:23:27.789Z,9.63
2022-09-22T04:25:55.276Z,9.68
2022-09-22T04:28:23.024Z,9.66
2022-09-22T04:30:50.895Z,9.77
2022-09-22T04:33:18.393Z,9.73
2022-09-22T04:35:45.901Z,9.75
2022-09-22T04:38:14.581Z,9.77
2022-09-22T04:40:42.386Z,9.73
2022-09-22T04:43:09.941Z,10.10
2022-09-22T04:45:39.764Z,10.29
2022-09-22T04:48:07.522Z,9.87
2022-09-22T04:50:35.041Z,10.14
2022-09-22T04:53:07.006Z,10.24
2022-09-22T04:55:35.133Z,10.27
2022-09-22T04:58:02.770Z,10.35
2022-09-22T05:00:30.700Z,10.54
2022-09-22T05:02:58.632Z,10.59
2022-09-22T05:05:26.177Z,10.68
2022-09-22T05:07:54.870Z,10.73
2022-09-22T05:10:25.433Z,11.10
2022-09-22T05:12:53.704Z,11.20
2022-09-22T05:15:22.772Z,11.20
2022-09-22T05:17:55.273Z,11.15
2022-09-22T05:20:23.191Z,11.10
2022-09-22T05:22:50.619Z,10.91
2022-09-22T05:25:20.210Z,11.20
2022-09-22T05:27:50.667Z,11.27
2022-09-22T05:30:19.513Z,11.61
2022-09-22T05:32:49.298Z,11.90
2022-09-22T05:35:23.864Z,11.87
2022-09-22T05:37:53.431Z,11.66
2022-09-22T05:40:24.132Z,11.62
2022-09-22T05:42:55.630Z,11.44
2022-09-22T05:45:23.440Z,11.59
2022-09-22T05:47:51.364Z,11.64
2022-09-22T05:50:20.958Z,11.88
2022-09-22T05:52:48.560Z,12.46
2022-09-22T05:55:16.491Z,12.62
2022-09-22T05:57:44.036Z,12.67
2022-09-22T06:00:12.807Z,12.82
2022-09-22T06:02:43.124Z,12.88
2022-09-22T06:05:10.637Z,13.02
2022-09-22T06:07:38.067Z,13.11
2022-09-22T06:10:06.506Z,12.97
2022-09-22T06:12:33.997Z,13.07
2022-09-22T06:15:01.423Z,12.84
2022-09-22T06:17:28.996Z,13.15
2022-09-22T06:19:56.506Z,13.50
2022-09-22T06:22:24.347Z,13.50
2022-09-22T06:24:51.824Z,13.17
2022-09-22T06:27:19.378Z,13.57
2022-09-22T06:29:46.787Z,13.48
2022-09-22T06:32:14.259Z,13.63
2022-09-22T06:34:44.772Z,13.70
2022-09-22T06:37:12.536Z,14.08
2022-09-22T06:39:39.975Z,14.19
2022-09-22T06:42:07.760Z,14.09
2022-09-22T06:44:36.148Z,14.30
2022-09-22T06:47:10.613Z,14.29
2022-09-22T06:49:38.268Z,14.56
2022-09-22T06:52:06.952Z,14.86
2022-09-22T06:54:34.406Z,14.75
2022-09-22T06:57:01.825Z,15.18
2022-09-22T06:59:29.520Z,15.17
2022-09-22T07:01:57.758Z,15.28
2022-09-22T07:04:25.370Z,15.22
2022-09-22T07:06:52.799Z,15.63
2022-09-22T07:09:21.246Z,15.44
2022-09-22T07:11:49.183Z,15.37
2022-09-22T07:14:16.740Z,15.44
2022-09-22T07:16:44.424Z,15.47
2022-09-22T07:19:12.051Z,15.66
2022-09-22T07:21:40.406Z,16.00
2022-09-22T07:24:08.787Z,16.15
2022-09-22T07:26:40.992Z,16.21
2022-09-22T07:29:13.772Z,16.68
2022-09-22T07:31:44.397Z,16.63
2022-09-22T07:34:12.827Z,16.92
2022-09-22T07:36:40.965Z,16.59
2022-09-22T07:39:12.974Z,16.50
2022-09-22T07:41:43.931Z,16.58
2022-09-22T07:44:33.386Z,16.57
2022-09-22T07:47:02.330Z,16.48
2022-09-22T07:49:30.746Z,16.70
2022-09-22T07:51:58.839Z,16.64
2022-09-22T07:54:27.703Z,16.64
2022-09-22T07:56:58.736Z,16.92
2022-09-22T07:59:27.642Z,16.80
2022-09-22T08:01:55.692Z,17.24
2022-09-22T08:04:24.077Z,17.00
2022-09-22T08:06:55.600Z,17.09
2022-09-22T08:09:25.377Z,17.27
2022-09-22T08:11:53.564Z,17.23
2022-09-22T08:14:23.639Z,17.98
2022-09-22T08:16:53.471Z,18.48
2022-09-22T08:19:23.902Z,18.27
2022-09-22T08:21:54.236Z,18.38
2022-09-22T08:24:23.123Z,18.06
2022-09-22T08:26:54.809Z,18.41
2022-09-22T08:29:24.429Z,18.52
2022-09-22T08:31:52.132Z,18.29
2022-09-22T08:34:20.382Z,18.61
2022-09-22T08:36:48.550Z,18.57
2022-09-22T08:39:18.065Z,18.93
2022-09-22T08:41:47.585Z,19.25
2022-09-22T08:44:23.046Z,19.18
2022-09-22T08:46:50.832Z,19.29
2022-09-22T08:50:05.361Z,19.44
2022-09-22T08:52:53.333Z,19.25
2022-09-22T08:55:25.574Z,19.37
2022-09-22T08:58:16.564Z,19.19
2022-09-22T09:00:56.993Z,19.15
2022-09-22T09:04:22.463Z,19.22
2022-09-22T09:06:55.770Z,19.64
2022-09-22T09:09:50.870Z,19.67
2022-09-22T09:13:11.885Z,19.94
2022-09-22T09:16:04.393Z,20.65
2022-09-22T09:18:38.078Z,20.29
2022-09-22T09:21:13.920Z,20.37
2022-09-22T09:26:46.765Z,20.21
2022-09-22T09:29:22.665Z,19.73
2022-09-22T09:31:54.893Z,20.09
2022-09-22T09:34:29.047Z,20.37
2022-09-22T09:37:07.819Z,20.72
2022-09-22T09:39:40.663Z,20.79
2022-09-22T09:42:25.350Z,21.02
2022-09-22T09:44:55.123Z,20.83
2022-09-22T09:47:59.653Z,20.91
2022-09-22T09:50:32.601Z,20.75
2022-09-22T09:53:01.393Z,20.81
2022-09-22T09:55:29.566Z,21.05
2022-09-22T09:58:36.303Z,21.62
2022-09-22T10:01:04.459Z,21.77
2022-09-22T10:03:41.190Z,21.83
2022-09-22T10:06:11.034Z,21.55
2022-09-22T10:08:49.335Z,21.10
2022-09-22T10:11:17.110Z,20.65
2022-09-22T10:13:45.019Z,20.05
2022-09-22T10:16:25.732Z,20.08
2022-09-22T10:19:30.303Z,20.72
2022-09-22T10:22:29.423Z,21.63
2022-09-22T10:25:05.227Z,22.50
2022-09-22T10:27:33.101Z,22.73
2022-09-22T10:30:22.116Z,22.82
2022-09-22T10:33:14.430Z,22.80
2022-09-22T10:36:06.512Z,22.80
2022-09-22T10:38:40.656Z,22.34
2022-09-22T10:41:30.822Z,22.11
2022-09-22T10:44:39.330Z,21.73
2022-09-22T10:47:27.543Z,21.64
2022-09-22T10:50:21.969Z,21.31
2022-09-22T10:52:52.125Z,21.41
2022-09-22T10:56:08.362Z,21.49
2022-09-22T10:59:21.382Z,21.38
2022-09-22T11:02:55.362Z,21.08
2022-09-22T11:05:56.238Z,21.40
2022-09-22T11:08:42.708Z,22.15
2022-09-22T11:11:51.526Z,22.86
2022-09-22T11:15:21.560Z,23.16
2022-09-22T11:18:13.407Z,23.37
2022-09-22T11:24:15.240Z,22.24
2022-09-22T11:26:57.250Z,22.03
2022-09-22T11:29:52.780Z,21.83
2022-09-22T11:33:05.835Z,21.53
2022-09-22T11:36:03.425Z,21.91
2022-09-22T11:38:53.950Z,22.23
2022-09-22T11:41:44.224Z,23.00
2022-09-22T11:44:52.362Z,23.32
2022-09-22T11:47:32.857Z,22.77
2022-09-22T11:50:16.362Z,22.56
2022-09-22T11:53:02.743Z,22.65
2022-09-22T11:56:06.941Z,23.02
2022-09-22T11:58:42.323Z,23.64
2022-09-22T12:01:22.359Z,23.78
2022-09-22T12:04:36.496Z,23.98
2022-09-22T12:07:14.561Z,24.07
2022-09-22T12:09:50.933Z,23.92
2022-09-22T12:12:22.204Z,23.37
2022-09-22T12:15:07.626Z,23.54
2022-09-22T12:17:52.732Z,23.85
2022-09-22T12:20:44.428Z,23.57
2022-09-22T12:23:38.848Z,23.51
2022-09-22T12:26:12.518Z,22.98
2022-09-22T12:28:45.508Z,22.64
2022-09-22T12:31:16.490Z,22.47
2022-09-22T12:33:55.587Z,22.26
2022-09-22T12:36:37.204Z,22.11
2022-09-22T12:39:20.257Z,21.74
2022-09-22T12:42:07.183Z,21.38
2022-09-22T12:44:48.810Z,21.46
2022-09-22T12:47:39.715Z,21.40
2022-09-22T12:50:25.227Z,21.41
2022-09-22T12:52:52.736Z,21.35
2022-09-22T12:55:40.831Z,21.30
2022-09-22T12:58:24.082Z,21.90
2022-09-22T13:00:57.118Z,22.05
2022-09-22T13:03:30.199Z,21.65
2022-09-22T13:06:24.292Z,21.69
2022-09-22T13:08:55.484Z,22.04
2022-09-22T13:12:12.572Z,23.21
2022-09-22T13:15:15.739Z,23.77
2022-09-22T13:17:51.235Z,23.43
2022-09-22T13:20:33.261Z,22.68
2022-09-22T13:23:14.163Z,22.46
2022-09-22T13:25:42.631Z,22.19
2022-09-22T13:28:09.963Z,21.81
2022-09-22T13:30:39.624Z,21.46
2022-09-22T13:33:19.262Z,21.27
2022-09-22T13:36:02.774Z,21.22
2022-09-22T13:38:38.792Z,21.11
2022-09-22T13:41:19.079Z,20.97
2022-09-22T13:43:54.655Z,21.00
2022-09-22T13:46:42.505Z,21.11
2022-09-22T13:49:17.214Z,21.06
2022-09-22T13:51:55.799Z,21.36
2022-09-22T13:54:27.601Z,22.63
2022-09-22T13:56:57.527Z,24.77
2022-09-22T13:59:28.744Z,26.06
2022-09-22T14:01:56.306Z,26.33
2022-09-22T14:04:27.795Z,27.23
2022-09-22T14:07:06.225Z,28.10
2022-09-22T14:09:38.842Z,28.27
2022-09-22T14:12:10.199Z,28.82
2022-09-22T14:14:40.210Z,29.06
2022-09-22T14:17:23.332Z,29.38
2022-09-22T14:19:57.814Z,29.70
2022-09-22T14:22:28.896Z,29.93
2022-09-22T14:24:59.494Z,30.54
2022-09-22T14:27:34.311Z,30.17
2022-09-22T14:30:02.327Z,29.15
2022-09-22T14:32:39.795Z,29.93
2022-09-22T14:35:32.284Z,30.44
2022-09-22T14:38:11.019Z,29.70
2022-09-22T14:41:03.140Z,29.37
2022-09-22T14:43:38.950Z,30.18
2022-09-22T14:46:33.790Z,30.76
2022-09-22T14:49:43.464Z,31.02
2022-09-22T14:52:34.819Z,30.81
2022-09-22T14:55:26.340Z,30.90
2022-09-22T14:57:53.932Z,31.27
2022-09-22T15:00:40.365Z,31.60
2022-09-22T15:03:23.801Z,31.68
2022-09-22T15:05:51.557Z,31.64
2022-09-22T15:08:27.864Z,32.01
2022-09-22T15:11:00.893Z,31.77
2022-09-22T15:13:39.313Z,31.30
2022-09-22T15:16:33.867Z,29.93
2022-09-22T15:19:01.639Z,28.33
2022-09-22T15:21:29.388Z,26.99
2022-09-22T15:24:04.467Z,25.78
2022-09-22T15:26:32.956Z,24.73
2022-09-22T15:29:21.771Z,24.03
2022-09-22T15:31:49.575Z,23.56
2022-09-22T15:34:17.275Z,23.12
2022-09-22T15:36:47.820Z,22.92
2022-09-22T15:39:24.800Z,22.54
2022-09-22T15:41:53.699Z,22.20
2022-09-22T15:44:21.350Z,21.98
2022-09-22T15:46:52.516Z,21.75
2022-09-22T15:49:26.378Z,21.70
2022-09-22T15:51:57.653Z,21.50
2022-09-22T15:54:26.770Z,21.13
2022-09-22T15:56:56.638Z,20.97
2022-09-22T15:59:32.346Z,20.58
2022-09-22T16:02:00.633Z,20.40
2022-09-22T16:04:33.832Z,20.22
2022-09-22T16:07:10.643Z,20.03
2022-09-22T16:09:38.684Z,19.66
2022-09-22T16:12:11.158Z,19.58
2022-09-22T16:14:41.067Z,19.36
2022-09-22T16:17:08.687Z,19.20
2022-09-22T16:19:37.664Z,19.06
2022-09-22T16:22:06.028Z,18.97
2022-09-22T16:24:33.631Z,19.12
2022-09-22T16:27:03.659Z,18.87
2022-09-22T16:29:31.212Z,18.77
2022-09-22T16:31:59.140Z,18.95
2022-09-22T16:34:27.119Z,18.76
2022-09-22T16:36:54.819Z,18.44
2022-09-22T16:39:22.288Z,18.49
2022-09-22T16:41:49.918Z,18.48
2022-09-22T16:44:17.387Z,18.39
2022-09-22T16:46:44.987Z,18.32
2022-09-22T16:49:16.308Z,18.07
2022-09-22T16:51:51.105Z,17.94
2022-09-22T16:54:19.860Z,17.80
2022-09-22T16:56:50.527Z,17.96
2022-09-22T16:59:21.615Z,18.04
2022-09-22T17:01:50.113Z,17.99
2022-09-22T17:04:19.625Z,17.95
2022-09-22T17:06:48.164Z,17.85
2022-09-22T17:09:19.137Z,17.74
2022-09-22T17:11:49.213Z,17.73
2022-09-22T17:14:23.151Z,17.80
2022-09-22T17:16:56.751Z,17.72
2022-09-22T17:19:27.975Z,17.61
2022-09-22T17:21:57.225Z,17.54
2022-09-22T17:24:26.977Z,17.62
2022-09-22T17:26:57.650Z,17.54
2022-09-22T17:29:32.917Z,17.50
2022-09-22T17:32:08.443Z,17.50
2022-09-22T17:34:38.275Z,17.61
2022-09-22T17:37:05.916Z,17.45
2022-09-22T17:39:35.324Z,17.44
2022-09-22T17:42:02.864Z,17.41
2022-09-22T17:44:37.787Z,17.32
2022-09-22T17:47:26.384Z,17.27
2022-09-22T17:50:13.876Z,17.21
2022-09-22T17:53:01.567Z,17.06
2022-09-22T17:55:30.362Z,16.97
2022-09-22T17:58:01.939Z,16.86
2022-09-22T18:00:33.621Z,16.89
2022-09-22T18:03:06.196Z,16.81
2022-09-22T18:05:40.786Z,16.74
2022-09-22T18:08:10.925Z,16.81
2022-09-22T18:10:38.944Z,16.76
2022-09-22T18:13:08.010Z,16.79
2022-09-22T18:15:36.942Z,16.81
2022-09-22T18:18:06.176Z,16.67
2022-09-22T18:20:39.730Z,16.66
2022-09-22T18:23:07.351Z,16.65
2022-09-22T18:25:35.410Z,16.57
2022-09-22T18:28:04.088Z,16.52
2022-09-22T18:30:35.493Z,16.53
2022-09-22T18:33:05.526Z,16.44
2022-09-22T18:35:34.099Z,16.38
2022-09-22T18:38:03.483Z,16.36
2022-09-22T18:40:33.660Z,16.19
2022-09-22T18:43:02.844Z,16.18
2022-09-22T18:45:37.579Z,16.20
2022-09-22T18:48:07.403Z,16.00
2022-09-22T18:50:41.477Z,15.95
2022-09-22T18:53:11.114Z,16.03
2022-09-22T18:55:39.088Z,15.94
2022-09-22T18:58:26.704Z,15.90
2022-09-22T19:01:00.732Z,15.90
2022-09-22T19:03:33.684Z,15.83
2022-09-22T19:06:05.196Z,15.69
2022-09-22T19:08:34.154Z,15.48
2022-09-22T19:11:03.279Z,15.57
2022-09-22T19:13:32.603Z,15.45
2022-09-22T19:16:22.773Z,15.52
2022-09-22T19:18:54.753Z,15.41
2022-09-22T19:21:25.103Z,15.36
2022-09-22T19:23:52.759Z,15.27
2022-09-22T19:26:23.484Z,15.26
2022-09-22T19:28:51.488Z,15.18
2022-09-22T19:31:19.180Z,15.23
2022-09-22T19:33:49.034Z,15.17
2022-09-22T19:36:16.722Z,15.16
2022-09-22T19:38:44.766Z,15.12
2022-09-22T19:41:13.940Z,15.38
2022-09-22T19:43:43.184Z,15.16
2022-09-22T19:46:11.300Z,15.03
2022-09-22T19:48:39.764Z,14.91
2022-09-22T19:51:11.013Z,14.90
2022-09-22T19:53:40.071Z,14.89
2022-09-22T19:56:09.244Z,14.83
2022-09-22T19:58:36.827Z,14.68
2022-09-22T20:01:09.347Z,14.74
2022-09-22T20:03:38.805Z,14.67
2022-09-22T20:06:06.767Z,14.74
2022-09-22T20:08:36.044Z,14.69
2022-09-22T20:11:25.500Z,14.67
2022-09-22T20:14:17.819Z,14.51
2022-09-22T20:16:46.776Z,14.41
2022-09-22T20:19:14.805Z,14.31
2022-09-22T20:21:45.987Z,14.21
2022-09-22T20:24:17.590Z,14.10
2022-09-22T20:26:47.632Z,14.09
2022-09-22T20:29:17.070Z,14.15
2022-09-22T20:31:44.995Z,14.09
2022-09-22T20:34:15.853Z,14.12
2022-09-22T20:36:43.561Z,13.91
2022-09-22T20:39:15.297Z,13.84
2022-09-22T20:41:44.271Z,13.83
2022-09-22T20:44:16.328Z,13.61
2022-09-22T20:46:44.010Z,13.81
2022-09-22T20:49:16.674Z,13.93
2022-09-22T20:51:47.489Z,14.05
2022-09-22T20:54:15.900Z,13.93
2022-09-22T20:56:44.263Z,13.91
2022-09-22T20:59:11.732Z,13.85
2022-09-22T21:01:39.228Z,13.74
2022-09-22T21:04:07.011Z,13.79
2022-09-22T21:06:34.660Z,13.82
2022-09-22T21:09:20.505Z,13.89
2022-09-22T21:11:48.000Z,13.89
2022-09-22T21:14:15.905Z,14.09
2022-09-22T21:16:43.566Z,13.99
2022-09-22T21:19:12.716Z,14.27
2022-09-22T21:21:40.508Z,14.11
2022-09-22T21:24:11.164Z,14.32
2022-09-22T21:26:38.822Z,13.85
2022-09-22T21:29:06.349Z,13.46
2022-09-22T21:31:34.859Z,13.48
2022-09-22T21:34:02.524Z,13.28
2022-09-22T21:36:29.999Z,13.21
2022-09-22T21:38:59.961Z,13.16
2022-09-22T21:41:31.214Z,13.09
2022-09-22T21:44:00.028Z,12.93
2022-09-22T21:46:30.414Z,13.08
2022-09-22T21:49:03.087Z,13.14
2022-09-22T21:51:34.754Z,12.99
2022-09-22T21:54:04.729Z,12.80
2022-09-22T21:56:33.924Z,12.84
2022-09-22T21:59:03.417Z,12.73
2022-09-22T22:01:37.792Z,12.57
2022-09-22T22:04:08.362Z,12.58
2022-09-22T22:06:43.151Z,12.61
2022-09-22T22:09:22.452Z,12.59
2022-09-22T22:11:59.793Z,12.43
2022-09-22T22:14:32.949Z,12.49
2022-09-22T22:17:02.300Z,12.49
2022-09-22T22:19:30.028Z,12.53
2022-09-22T22:21:58.540Z,12.71
2022-09-22T22:24:31.787Z,12.70
2022-09-22T22:27:06.353Z,12.49
2022-09-22T22:29:35.140Z,12.48
2022-09-22T22:32:08.140Z,12.44
2022-09-22T22:34:35.674Z,12.38
2022-09-22T22:37:04.751Z,12.31
2022-09-22T22:39:32.595Z,12.29
2022-09-22T22:42:00.105Z,12.67
2022-09-22T22:44:27.806Z,12.47
2022-09-22T22:46:55.335Z,12.29
2022-09-22T22:49:22.755Z,12.21
2022-09-22T22:51:52.324Z,12.25
2022-09-22T22:54:19.944Z,11.96
2022-09-22T22:56:50.939Z,11.94
2022-09-22T22:59:19.315Z,11.98
2022-09-22T23:01:46.905Z,12.06
2022-09-22T23:04:16.669Z,12.22
2022-09-22T23:06:44.578Z,12.25
2022-09-22T23:09:15.864Z,12.20
2022-09-22T23:11:46.332Z,12.35
2022-09-22T23:14:15.991Z,12.35
2022-09-22T23:16:49.599Z,12.07
2022-09-22T23:19:18.898Z,12.24
2022-09-22T23:21:47.513Z,12.18
2022-09-22T23:24:18.892Z,12.00
2022-09-22T23:26:47.566Z,11.98
2022-09-22T23:29:15.197Z,12.03
2022-09-22T23:31:43.248Z,12.02
2022-09-22T23:34:10.744Z,11.92
2022-09-22T23:36:39.615Z,11.80
2022-09-22T23:39:07.248Z,11.87
2022-09-22T23:41:36.862Z,11.87
2022-09-22T23:44:08.502Z,11.87
2022-09-22T23:46:38.327Z,11.93
2022-09-22T23:49:06.859Z,11.75
2022-09-22T23:51:34.307Z,11.79
2022-09-22T23:54:01.931Z,11.70
2022-09-22T23:56:29.604Z,11.61
2022-09-22T23:58:57.326Z,11.71
